createdAt,value
2023-06-16T00:00:39.441Z,4.13
2023-06-16T00:03:06.668Z,3.95
2023-06-16T00:05:36.394Z,4.68
2023-06-16T00:08:05.017Z,4.10
2023-06-16T00:10:32.074Z,4.05
2023-06-16T00:12:58.785Z,3.85
2023-06-16T00:15:25.652Z,4.03
2023-06-16T00:17:52.481Z,3.72
2023-06-16T00:20:22.896Z,4.18
2023-06-16T00:22:50.377Z,4.57
2023-06-16T00:25:18.946Z,3.88
2023-06-16T00:27:46.140Z,4.30
2023-06-16T00:30:13.415Z,3.95
2023-06-16T00:32:40.340Z,4.20
2023-06-16T00:35:07.578Z,4.28
2023-06-16T00:37:34.522Z,3.95
2023-06-16T00:40:01.235Z,4.32
2023-06-16T00:42:28.141Z,4.32
2023-06-16T00:44:54.773Z,4.13
2023-06-16T00:47:21.690Z,4.72
2023-06-16T00:49:48.583Z,4.47
2023-06-16T00:52:17.065Z,4.80
2023-06-16T00:54:43.911Z,3.70
2023-06-16T00:57:10.734Z,4.80
2023-06-16T00:59:37.610Z,4.45
2023-06-16T01:02:05.118Z,5.20
2023-06-16T01:04:33.208Z,4.63
2023-06-16T01:07:22.664Z,4.22
2023-06-16T01:10:22.179Z,4.63
2023-06-16T01:13:18.795Z,4.85
2023-06-16T01:15:47.615Z,4.65
2023-06-16T01:18:16.311Z,4.10
2023-06-16T01:21:06.251Z,4.72
2023-06-16T01:23:54.687Z,4.10
2023-06-16T01:26:24.123Z,4.47
2023-06-16T01:28:52.769Z,4.82
2023-06-16T01:31:21.551Z,4.65
2023-06-16T01:33:48.912Z,4.35
2023-06-16T01:36:16.497Z,4.38
2023-06-16T01:38:44.797Z,4.43
2023-06-16T01:41:12.066Z,4.93
2023-06-16T01:43:39.605Z,4.32
2023-06-16T01:46:07.178Z,5.38
2023-06-16T01:48:35.807Z,4.70
2023-06-16T01:51:02.798Z,4.68
2023-06-16T01:53:29.436Z,4.25
2023-06-16T01:55:56.117Z,5.03
2023-06-16T01:58:24.709Z,4.60
2023-06-16T02:00:58.845Z,4.75
2023-06-16T02:03:47.136Z,5.07
2023-06-16T02:06:22.966Z,4.75
2023-06-16T02:08:53.714Z,5.28
2023-06-16T02:11:21.106Z,6.22
2023-06-16T02:13:47.849Z,4.85
2023-06-16T02:16:14.736Z,4.70
2023-06-16T02:18:41.518Z,4.72
2023-06-16T02:21:08.195Z,4.47
2023-06-16T02:23:35.289Z,5.13
2023-06-16T02:26:01.909Z,4.25
2023-06-16T02:28:28.581Z,5.20
2023-06-16T02:30:55.291Z,5.43
2023-06-16T02:33:22.137Z,4.85
2023-06-16T02:35:49.002Z,4.53
2023-06-16T02:38:15.827Z,5.15
2023-06-16T02:40:42.461Z,6.00
2023-06-16T02:43:09.217Z,4.85
2023-06-16T02:45:35.814Z,5.35
2023-06-16T02:48:02.470Z,5.00
2023-06-16T02:50:29.100Z,4.68
2023-06-16T02:52:55.842Z,5.50
2023-06-16T02:55:22.580Z,5.65
2023-06-16T02:57:49.246Z,5.45
2023-06-16T03:00:16.416Z,5.45
2023-06-16T03:02:43.527Z,5.38
2023-06-16T03:05:10.256Z,5.70
2023-06-16T03:07:37.422Z,5.28
2023-06-16T03:10:04.537Z,4.70
2023-06-16T03:12:31.233Z,5.43
2023-06-16T03:14:57.910Z,5.30
2023-06-16T03:17:24.589Z,5.15
2023-06-16T03:19:51.803Z,5.03
2023-06-16T03:22:18.436Z,5.07
2023-06-16T03:24:45.553Z,5.60
2023-06-16T03:27:14.855Z,5.05
2023-06-16T03:29:41.835Z,4.85
2023-06-16T03:32:08.641Z,6.28
2023-06-16T03:34:35.474Z,5.20
2023-06-16T03:37:02.132Z,5.05
2023-06-16T03:39:28.764Z,5.22
2023-06-16T03:41:55.639Z,5.13
2023-06-16T03:44:22.254Z,4.70
2023-06-16T03:46:48.830Z,5.55
2023-06-16T03:49:15.701Z,5.25
2023-06-16T03:51:42.279Z,6.15
2023-06-16T03:54:08.999Z,5.70
2023-06-16T03:56:35.683Z,5.70
2023-06-16T03:59:02.725Z,5.88
2023-06-16T04:01:30.409Z,5.30
2023-06-16T04:03:57.324Z,5.65
2023-06-16T04:06:23.941Z,5.53
2023-06-16T04:08:51.115Z,5.47
2023-06-16T04:11:17.928Z,5.47
2023-06-16T04:13:45.902Z,5.53
2023-06-16T04:16:12.510Z,5.90
2023-06-16T04:18:39.189Z,5.82
2023-06-16T04:21:06.234Z,5.75
2023-06-16T04:23:36.653Z,5.35
2023-06-16T04:26:03.299Z,5.60
2023-06-16T04:28:31.474Z,4.85
2023-06-16T04:30:58.483Z,5.10
2023-06-16T04:33:25.660Z,4.95
2023-06-16T04:35:53.357Z,5.00
2023-06-16T04:38:21.252Z,5.07
2023-06-16T04:40:48.317Z,4.93
2023-06-16T04:43:14.989Z,4.72
2023-06-16T04:45:41.724Z,4.82
2023-06-16T04:48:08.708Z,5.05
2023-06-16T04:50:35.502Z,4.70
2023-06-16T04:53:04.530Z,5.40
2023-06-16T04:55:31.457Z,5.45
2023-06-16T04:57:58.128Z,4.43
2023-06-16T05:00:25.398Z,4.82
2023-06-16T05:02:52.534Z,4.80
2023-06-16T05:05:19.308Z,5.00
2023-06-16T05:07:46.896Z,5.30
2023-06-16T05:10:13.787Z,5.32
2023-06-16T05:12:40.386Z,5.15
2023-06-16T05:15:07.527Z,4.45
2023-06-16T05:17:34.342Z,5.35
2023-06-16T05:20:01.337Z,5.53
2023-06-16T05:22:27.939Z,5.50
2023-06-16T05:24:55.392Z,5.07
2023-06-16T05:27:24.148Z,4.75
2023-06-16T05:29:56.772Z,5.05
2023-06-16T05:32:26.597Z,4.88
2023-06-16T05:34:53.631Z,5.38
2023-06-16T05:37:21.508Z,4.80
2023-06-16T05:39:52.462Z,5.55
2023-06-16T05:42:19.145Z,5.72
2023-06-16T05:44:46.758Z,5.05
2023-06-16T05:47:13.929Z,4.80
2023-06-16T05:49:40.824Z,5.32
2023-06-16T05:52:08.324Z,5.10
2023-06-16T05:54:42.311Z,5.60
2023-06-16T05:57:09.276Z,5.40
2023-06-16T05:59:37.546Z,5.70
2023-06-16T06:02:04.961Z,6.50
2023-06-16T06:04:33.775Z,4.97
2023-06-16T06:07:03.392Z,5.10
2023-06-16T06:09:31.324Z,5.10
2023-06-16T06:11:57.981Z,5.60
2023-06-16T06:14:24.630Z,5.18
2023-06-16T06:16:52.417Z,5.30
2023-06-16T06:19:19.463Z,4.90
2023-06-16T06:21:46.595Z,4.57
2023-06-16T06:24:15.765Z,4.78
2023-06-16T06:26:44.483Z,5.10
2023-06-16T06:29:11.399Z,4.72
2023-06-16T06:31:38.181Z,5.13
2023-06-16T06:34:04.806Z,4.75
2023-06-16T06:36:31.702Z,5.05
2023-06-16T06:38:58.880Z,4.78
2023-06-16T06:41:26.868Z,5.93
2023-06-16T06:43:54.509Z,4.68
2023-06-16T06:46:21.293Z,5.45
2023-06-16T06:48:49.103Z,5.13
2023-06-16T06:51:16.026Z,4.85
2023-06-16T06:53:44.207Z,4.53
2023-06-16T06:56:10.976Z,4.80
2023-06-16T06:58:37.879Z,4.47
2023-06-16T07:01:04.856Z,4.78
2023-06-16T07:03:32.511Z,4.40
2023-06-16T07:05:59.425Z,5.00
2023-06-16T07:08:26.896Z,4.47
2023-06-16T07:10:53.766Z,4.80
2023-06-16T07:13:20.757Z,4.80
2023-06-16T07:15:47.454Z,3.92
2023-06-16T07:18:14.317Z,4.65
2023-06-16T07:20:41.181Z,4.30
2023-06-16T07:23:07.798Z,4.55
2023-06-16T07:25:37.571Z,4.30
2023-06-16T07:28:06.176Z,4.88
2023-06-16T07:30:34.397Z,4.40
2023-06-16T07:33:01.301Z,4.35
2023-06-16T07:35:28.006Z,4.43
2023-06-16T07:37:55.274Z,3.83
2023-06-16T07:40:22.492Z,4.80
2023-06-16T07:42:49.768Z,4.07
2023-06-16T07:45:18.915Z,4.75
2023-06-16T07:47:49.912Z,3.90
2023-06-16T07:50:16.895Z,4.45
2023-06-16T07:52:43.868Z,4.03
2023-06-16T07:55:12.112Z,4.13
2023-06-16T07:57:40.254Z,3.55
2023-06-16T08:00:11.604Z,4.07
2023-06-16T08:02:42.689Z,4.47
2023-06-16T08:05:11.714Z,3.80
2023-06-16T08:07:39.539Z,3.88
2023-06-16T08:10:06.807Z,4.60
2023-06-16T08:12:33.708Z,4.35
2023-06-16T08:15:01.226Z,4.20
2023-06-16T08:17:27.959Z,3.90
2023-06-16T08:19:54.908Z,3.80
2023-06-16T08:22:21.807Z,3.38
2023-06-16T08:24:48.554Z,3.58
2023-06-16T08:27:15.588Z,3.60
2023-06-16T08:29:42.472Z,3.90
2023-06-16T08:32:09.278Z,3.75
2023-06-16T08:34:37.752Z,3.78
2023-06-16T08:37:11.278Z,3.78
2023-06-16T08:39:43.974Z,3.67
2023-06-16T08:42:12.317Z,3.90
2023-06-16T08:44:41.468Z,4.00
2023-06-16T08:47:09.507Z,3.78
2023-06-16T08:49:36.978Z,3.85
2023-06-16T08:52:05.828Z,4.00
2023-06-16T08:54:49.576Z,3.85
2023-06-16T08:57:19.150Z,3.47
2023-06-16T08:59:51.701Z,3.45
2023-06-16T09:02:19.964Z,3.70
2023-06-16T09:04:46.889Z,4.00
2023-06-16T09:07:20.821Z,3.60
2023-06-16T09:09:47.747Z,3.83
2023-06-16T09:12:15.444Z,4.45
2023-06-16T09:14:44.357Z,3.45
2023-06-16T09:17:11.737Z,3.33
2023-06-16T09:19:49.535Z,4.00
2023-06-16T09:22:18.143Z,4.13
2023-06-16T09:24:46.593Z,3.72
2023-06-16T09:27:14.075Z,3.83
2023-06-16T09:29:40.972Z,4.00
2023-06-16T09:32:09.815Z,4.15
2023-06-16T09:34:36.978Z,3.85
2023-06-16T09:37:07.821Z,3.90
2023-06-16T09:39:35.351Z,3.90
2023-06-16T09:42:03.117Z,3.75
2023-06-16T09:44:31.665Z,3.83
2023-06-16T09:47:04.661Z,4.03
2023-06-16T09:49:31.304Z,3.55
2023-06-16T09:51:59.322Z,3.92
2023-06-16T09:54:27.724Z,3.90
2023-06-16T09:56:56.823Z,3.75
2023-06-16T09:59:25.139Z,3.95
2023-06-16T10:01:55.114Z,4.05
2023-06-16T10:04:24.157Z,4.43
2023-06-16T10:06:59.319Z,3.85
2023-06-16T10:09:28.907Z,4.20
2023-06-16T10:11:59.088Z,4.22
2023-06-16T10:14:34.230Z,4.10
2023-06-16T10:17:02.280Z,4.18
2023-06-16T10:19:33.736Z,4.00
2023-06-16T10:22:01.214Z,4.18
2023-06-16T10:24:28.577Z,3.65
2023-06-16T10:26:56.756Z,4.28
2023-06-16T10:29:27.783Z,4.35
2023-06-16T10:32:08.088Z,4.55
2023-06-16T10:34:36.224Z,4.82
2023-06-16T10:37:03.231Z,4.88
2023-06-16T10:39:30.323Z,4.63
2023-06-16T10:42:00.603Z,4.47
2023-06-16T10:44:31.545Z,4.30
2023-06-16T10:47:18.703Z,4.45
2023-06-16T10:49:56.943Z,4.30
2023-06-16T10:52:29.724Z,4.45
2023-06-16T10:54:57.798Z,4.72
2023-06-16T10:57:27.964Z,4.53
2023-06-16T10:59:59.403Z,4.03
2023-06-16T11:02:28.862Z,3.83
2023-06-16T11:05:08.740Z,3.97
2023-06-16T11:07:42.435Z,4.18
2023-06-16T11:10:10.571Z,4.07
2023-06-16T11:12:38.917Z,4.13
2023-06-16T11:15:06.198Z,4.40
2023-06-16T11:17:33.934Z,4.20
2023-06-16T11:20:02.996Z,4.30
2023-06-16T11:22:34.587Z,3.92
2023-06-16T11:25:02.345Z,4.70
2023-06-16T11:27:30.472Z,4.07
2023-06-16T11:29:58.597Z,3.95
2023-06-16T11:32:26.470Z,4.22
2023-06-16T11:34:58.162Z,4.03
2023-06-16T11:37:40.904Z,3.90
2023-06-16T11:40:09.241Z,4.18
2023-06-16T11:42:37.366Z,3.65
2023-06-16T11:45:04.788Z,3.88
2023-06-16T11:47:31.586Z,4.65
2023-06-16T11:49:58.388Z,3.97
2023-06-16T11:52:25.048Z,3.95
2023-06-16T11:54:51.843Z,4.15
2023-06-16T11:57:18.867Z,4.10
2023-06-16T11:59:47.916Z,4.05
2023-06-16T12:02:14.756Z,4.05
2023-06-16T12:04:44.263Z,4.22
2023-06-16T12:07:11.140Z,4.45
2023-06-16T12:09:39.231Z,4.57
2023-06-16T12:12:06.735Z,4.32
2023-06-16T12:14:38.119Z,4.25
2023-06-16T12:17:05.189Z,4.28
2023-06-16T12:19:31.943Z,4.20
2023-06-16T12:22:03.008Z,4.38
2023-06-16T12:24:30.216Z,4.75
2023-06-16T12:26:57.281Z,4.57
2023-06-16T12:29:28.056Z,4.30
2023-06-16T12:32:04.088Z,3.97
2023-06-16T12:34:34.187Z,4.90
2023-06-16T12:37:03.314Z,4.53
2023-06-16T12:39:30.063Z,4.20
2023-06-16T12:42:01.364Z,4.50
2023-06-16T12:44:48.137Z,4.28
2023-06-16T12:47:16.663Z,4.57
2023-06-16T12:49:43.947Z,3.95
2023-06-16T12:52:12.043Z,4.32
2023-06-16T12:54:39.088Z,4.47
2023-06-16T12:57:06.041Z,4.43
2023-06-16T12:59:32.820Z,4.32
2023-06-16T13:02:00.006Z,4.10
2023-06-16T13:04:27.307Z,4.28
2023-06-16T13:06:54.132Z,4.25
2023-06-16T13:09:23.387Z,4.20
2023-06-16T13:12:00.613Z,4.43
2023-06-16T13:14:30.190Z,4.15
2023-06-16T13:16:57.087Z,4.18
2023-06-16T13:19:23.926Z,3.95
2023-06-16T13:21:50.613Z,4.15
2023-06-16T13:24:18.057Z,5.15
2023-06-16T13:26:44.914Z,4.18
2023-06-16T13:29:11.785Z,4.32
2023-06-16T13:31:38.492Z,4.55
2023-06-16T13:34:05.521Z,3.97
2023-06-16T13:36:34.025Z,4.32
2023-06-16T13:39:02.883Z,4.45
2023-06-16T13:41:30.478Z,3.90
2023-06-16T13:43:57.208Z,4.82
2023-06-16T13:46:25.313Z,4.28
2023-06-16T13:48:52.054Z,4.30
2023-06-16T13:51:18.743Z,4.13
2023-06-16T13:53:45.438Z,4.28
2023-06-16T13:56:12.148Z,5.00
2023-06-16T13:58:38.867Z,4.47
2023-06-16T14:01:05.595Z,4.25
2023-06-16T14:03:32.386Z,3.85
2023-06-16T14:05:59.122Z,4.63
2023-06-16T14:08:25.988Z,3.92
2023-06-16T14:10:53.699Z,4.00
2023-06-16T14:13:21.087Z,4.15
2023-06-16T14:15:51.552Z,4.03
2023-06-16T14:18:27.304Z,4.55
2023-06-16T14:20:54.766Z,4.60
2023-06-16T14:23:21.381Z,3.75
2023-06-16T14:25:49.554Z,4.57
2023-06-16T14:28:16.533Z,4.40
2023-06-16T14:30:44.466Z,4.60
2023-06-16T14:33:12.023Z,4.55
2023-06-16T14:35:39.240Z,4.32
2023-06-16T14:38:06.298Z,4.47
2023-06-16T14:40:32.980Z,4.47
2023-06-16T14:43:00.115Z,4.28
2023-06-16T14:45:26.991Z,4.53
2023-06-16T14:47:53.930Z,4.28
2023-06-16T14:50:23.854Z,3.97
2023-06-16T14:52:52.091Z,4.50
2023-06-16T14:55:18.934Z,4.45
2023-06-16T14:57:46.125Z,4.20
2023-06-16T15:00:13.355Z,3.95
2023-06-16T15:02:40.142Z,4.32
2023-06-16T15:05:07.916Z,4.80
2023-06-16T15:07:34.987Z,4.10
2023-06-16T15:10:01.798Z,4.70
2023-06-16T15:12:28.707Z,4.07
2023-06-16T15:14:55.296Z,4.38
2023-06-16T15:17:21.948Z,4.82
2023-06-16T15:19:48.879Z,4.22
2023-06-16T15:22:16.034Z,4.28
2023-06-16T15:24:42.721Z,4.22
2023-06-16T15:27:09.364Z,4.20
2023-06-16T15:29:36.243Z,4.68
2023-06-16T15:32:02.882Z,4.40
2023-06-16T15:34:29.540Z,4.40
2023-06-16T15:36:57.025Z,4.35
2023-06-16T15:39:26.061Z,4.50
2023-06-16T15:41:53.324Z,4.82
2023-06-16T15:44:19.989Z,4.82
2023-06-16T15:46:49.373Z,4.60
2023-06-16T15:49:16.013Z,4.55
2023-06-16T15:51:42.659Z,4.82
2023-06-16T15:54:09.987Z,4.10
2023-06-16T15:56:36.928Z,4.43
2023-06-16T15:59:03.694Z,4.82
2023-06-16T16:01:30.444Z,4.93
2023-06-16T16:03:57.422Z,4.57
2023-06-16T16:06:24.201Z,4.57
2023-06-16T16:08:50.867Z,4.60
2023-06-16T16:11:17.568Z,4.90
2023-06-16T16:13:44.193Z,4.57
2023-06-16T16:16:11.709Z,4.90
2023-06-16T16:18:38.359Z,4.32
2023-06-16T16:21:05.080Z,4.72
2023-06-16T16:23:34.721Z,4.70
2023-06-16T16:26:02.803Z,4.68
2023-06-16T16:28:29.500Z,4.75
2023-06-16T16:30:56.265Z,4.70
2023-06-16T16:33:24.139Z,4.57
2023-06-16T16:35:50.920Z,4.30
2023-06-16T16:38:17.514Z,4.43
2023-06-16T16:40:44.204Z,4.28
2023-06-16T16:43:10.998Z,3.60
2023-06-16T16:45:37.857Z,4.20
2023-06-16T16:48:04.547Z,4.63
2023-06-16T16:50:31.323Z,4.50
2023-06-16T16:52:58.293Z,4.18
2023-06-16T16:55:35.834Z,3.85
2023-06-16T16:58:04.394Z,4.57
2023-06-16T17:00:31.115Z,4.18
2023-06-16T17:02:57.838Z,4.35
2023-06-16T17:05:24.596Z,4.60
2023-06-16T17:07:51.681Z,4.53
2023-06-16T17:10:18.608Z,4.20
2023-06-16T17:12:45.765Z,4.35
2023-06-16T17:15:12.403Z,4.35
2023-06-16T17:17:39.201Z,4.05
2023-06-16T17:20:06.559Z,4.53
2023-06-16T17:22:33.124Z,4.03
2023-06-16T17:24:59.796Z,4.65
2023-06-16T17:27:26.554Z,4.07
2023-06-16T17:29:53.510Z,4.60
2023-06-16T17:32:20.342Z,4.35
2023-06-16T17:34:47.187Z,4.28
2023-06-16T17:37:13.992Z,4.13
2023-06-16T17:39:40.798Z,4.70
2023-06-16T17:42:07.582Z,4.57
2023-06-16T17:44:34.211Z,4.25
2023-06-16T17:47:01.460Z,4.72
2023-06-16T17:49:44.173Z,4.10
2023-06-16T17:52:10.918Z,4.53
2023-06-16T17:54:37.577Z,4.28
2023-06-16T17:57:04.506Z,4.43
2023-06-16T17:59:32.098Z,4.30
2023-06-16T18:02:00.762Z,3.85
2023-06-16T18:04:27.563Z,4.10
2023-06-16T18:06:54.136Z,3.80
2023-06-16T18:09:20.780Z,4.28
2023-06-16T18:11:47.427Z,4.28
2023-06-16T18:14:14.161Z,4.10
2023-06-16T18:16:40.907Z,4.50
2023-06-16T18:19:07.579Z,4.88
2023-06-16T18:21:34.193Z,4.35
2023-06-16T18:24:01.650Z,3.83
2023-06-16T18:26:28.243Z,3.70
2023-06-16T18:28:55.116Z,4.50
2023-06-16T18:31:21.942Z,3.90
2023-06-16T18:33:48.534Z,4.38
2023-06-16T18:36:15.202Z,3.80
2023-06-16T18:38:46.073Z,4.13
2023-06-16T18:41:13.739Z,4.00
2023-06-16T18:43:40.439Z,4.07
2023-06-16T18:46:07.160Z,4.22
2023-06-16T18:48:33.984Z,4.07
2023-06-16T18:51:00.827Z,4.00
2023-06-16T18:53:27.640Z,4.20
2023-06-16T18:55:54.309Z,3.72
2023-06-16T18:58:21.136Z,3.97
2023-06-16T19:00:47.801Z,4.00
2023-06-16T19:03:14.659Z,3.85
2023-06-16T19:05:42.831Z,4.80
2023-06-16T19:08:12.431Z,4.55
2023-06-16T19:10:39.727Z,5.30
2023-06-16T19:13:06.541Z,4.13
2023-06-16T19:15:33.735Z,4.82
2023-06-16T19:18:02.204Z,4.38
2023-06-16T19:20:29.196Z,4.47
2023-06-16T19:22:56.148Z,4.65
2023-06-16T19:25:23.158Z,4.80
2023-06-16T19:27:50.024Z,4.50
2023-06-16T19:30:16.633Z,4.03
2023-06-16T19:32:43.408Z,4.72
2023-06-16T19:35:10.657Z,4.38
2023-06-16T19:37:37.812Z,4.22
2023-06-16T19:40:09.296Z,4.45
2023-06-16T19:42:36.044Z,4.22
2023-06-16T19:45:04.070Z,3.88
2023-06-16T19:47:30.888Z,3.78
2023-06-16T19:49:57.483Z,4.05
2023-06-16T19:52:24.083Z,4.25
2023-06-16T19:54:51.199Z,4.25
2023-06-16T19:57:18.538Z,3.78
2023-06-16T19:59:45.218Z,4.00
2023-06-16T20:02:11.938Z,3.58
2023-06-16T20:04:42.431Z,3.60
2023-06-16T20:07:11.974Z,4.03
2023-06-16T20:09:38.988Z,4.10
2023-06-16T20:12:06.370Z,3.60
2023-06-16T20:14:33.127Z,3.78
2023-06-16T20:17:02.100Z,4.22
2023-06-16T20:19:29.536Z,4.10
2023-06-16T20:21:58.610Z,3.97
2023-06-16T20:24:26.813Z,4.20
2023-06-16T20:26:53.627Z,4.32
2023-06-16T20:29:21.326Z,3.83
2023-06-16T20:31:48.260Z,3.72
2023-06-16T20:34:15.009Z,4.40
2023-06-16T20:36:46.208Z,3.72
2023-06-16T20:39:15.493Z,3.97
2023-06-16T20:41:42.687Z,3.90
2023-06-16T20:44:10.060Z,4.40
2023-06-16T20:46:40.187Z,4.43
2023-06-16T20:49:10.172Z,5.10
2023-06-16T20:51:37.543Z,4.43
2023-06-16T20:54:04.322Z,4.38
2023-06-16T20:56:32.698Z,5.00
2023-06-16T20:59:00.286Z,4.68
2023-06-16T21:01:30.983Z,4.35
2023-06-16T21:03:58.000Z,3.97
2023-06-16T21:06:24.942Z,4.15
2023-06-16T21:09:04.792Z,4.55
2023-06-16T21:11:31.909Z,4.72
2023-06-16T21:13:59.367Z,4.35
2023-06-16T21:16:32.236Z,4.50
2023-06-16T21:21:31.514Z,5.10
2023-06-16T21:24:01.761Z,3.97
2023-06-16T21:26:29.176Z,4.35
2023-06-16T21:28:56.125Z,4.50
2023-06-16T21:31:23.628Z,4.40
2023-06-16T21:33:50.292Z,4.30
2023-06-16T21:36:17.366Z,4.60
2023-06-16T21:38:45.268Z,4.30
2023-06-16T21:41:12.009Z,4.13
2023-06-16T21:43:39.096Z,4.43
2023-06-16T21:46:06.099Z,4.85
2023-06-16T21:48:33.497Z,4.93
2023-06-16T21:51:00.415Z,4.70
2023-06-16T21:53:27.255Z,4.90
2023-06-16T21:55:56.963Z,4.78
2023-06-16T21:58:24.141Z,4.70
2023-06-16T22:00:51.174Z,4.43
2023-06-16T22:03:18.927Z,5.10
2023-06-16T22:05:45.726Z,4.55
2023-06-16T22:08:12.327Z,4.72
2023-06-16T22:10:41.188Z,4.95
2023-06-16T22:13:07.937Z,4.80
2023-06-16T22:15:34.904Z,4.80
2023-06-16T22:18:01.630Z,5.30
2023-06-16T22:20:28.329Z,5.53
2023-06-16T22:22:55.235Z,4.97
2023-06-16T22:25:22.722Z,5.07
2023-06-16T22:27:50.707Z,5.20
2023-06-16T22:30:20.061Z,5.55
2023-06-16T22:32:49.485Z,5.90
2023-06-16T22:35:16.665Z,5.55
2023-06-16T22:37:43.529Z,5.18
2023-06-16T22:40:11.322Z,5.20
2023-06-16T22:42:38.025Z,5.50
2023-06-16T22:45:04.910Z,5.40
2023-06-16T22:47:31.685Z,5.30
2023-06-16T22:49:58.290Z,5.53
2023-06-16T22:52:24.891Z,5.50
2023-06-16T22:54:52.029Z,5.53
2023-06-16T22:57:19.576Z,5.30
2023-06-16T22:59:46.239Z,5.15
2023-06-16T23:02:13.099Z,5.40
2023-06-16T23:04:39.927Z,5.20
2023-06-16T23:07:06.535Z,4.70
2023-06-16T23:09:33.622Z,5.15
2023-06-16T23:12:00.329Z,5.40
2023-06-16T23:14:26.963Z,5.28
2023-06-16T23:16:53.726Z,5.03
2023-06-16T23:19:23.701Z,5.22
2023-06-16T23:21:54.970Z,5.30
2023-06-16T23:24:23.017Z,5.00
2023-06-16T23:26:52.423Z,4.82
2023-06-16T23:29:19.363Z,4.57
2023-06-16T23:31:46.578Z,4.60
2023-06-16T23:34:14.290Z,5.30
2023-06-16T23:36:42.042Z,5.40
2023-06-16T23:39:10.245Z,4.40
2023-06-16T23:41:37.720Z,4.97
2023-06-16T23:44:07.128Z,5.22
2023-06-16T23:46:33.952Z,4.85
2023-06-16T23:49:01.068Z,4.78
2023-06-16T23:51:27.726Z,5.03
2023-06-16T23:53:54.351Z,5.05
2023-06-16T23:56:21.054Z,5.07
2023-06-16T23:58:47.733Z,5.10
